Time;durP1;ratioP1;P1;durP2;ratioP2;P2;SDS_P1;SDS_P2;PMS_P1;PMS_P2;Temp;Humidity;BMP_temperature;BMP_pressure;BME280_temperature;BME280_humidity;BME280_pressure;Samples;Min_cycle;Max_cycle;Signal;HPM_P1;HPM_P2
2023/10/05 00:01:17;;;;;;;17.77;4.75;;;15.80;99.90;;;;;;5017789;28;20529;-74
2023/10/05 00:03:44;;;;;;;9.13;3.38;;;15.70;99.90;;;;;;5037596;28;20482;-74
2023/10/05 00:06:14;;;;;;;13.10;3.25;;;15.70;99.90;;;;;;5036176;28;20056;-74
2023/10/05 00:08:47;;;;;;;13.65;3.58;;;15.70;99.90;;;;;;5035878;28;20453;-74
2023/10/05 00:11:22;;;;;;;13.45;3.72;;;15.70;99.90;;;;;;5019604;28;20044;-74
2023/10/05 00:13:53;;;;;;;16.15;3.40;;;15.70;99.90;;;;;;5037253;28;20033;-74
2023/10/05 00:16:22;;;;;;;10.77;2.95;;;15.70;99.90;;;;;;5041105;28;20107;-74
2023/10/05 00:18:49;;;;;;;8.55;3.05;;;15.70;99.90;;;;;;5043845;28;20079;-72
2023/10/05 00:21:19;;;;;;;13.05;3.83;;;15.70;99.90;;;;;;5050950;28;20032;-74
2023/10/05 00:23:50;;;;;;;9.77;3.15;;;15.80;99.90;;;;;;5051213;28;20035;-74
2023/10/05 00:26:15;;;;;;;10.52;3.08;;;15.80;99.90;;;;;;5052594;28;20102;-74
2023/10/05 00:28:58;;;;;;;10.38;3.10;;;15.70;99.90;;;;;;5055161;28;20037;-74
2023/10/05 00:31:24;;;;;;;11.77;3.22;;;15.70;99.90;;;;;;5047793;28;20036;-74
2023/10/05 00:33:55;;;;;;;10.98;3.38;;;15.70;99.90;;;;;;5051838;28;20025;-74
2023/10/05 00:36:24;;;;;;;10.40;3.10;;;15.70;99.90;;;;;;5054906;28;20025;-74
2023/10/05 00:38:51;;;;;;;14.60;3.25;;;15.70;99.90;;;;;;5036856;28;20067;-74
2023/10/05 00:41:17;;;;;;;10.20;3.10;;;15.70;99.90;;;;;;5055013;28;20024;-74
2023/10/05 00:43:46;;;;;;;13.80;3.33;;;15.70;99.90;;;;;;5055028;28;20044;-73
2023/10/05 00:46:12;;;;;;;13.10;3.55;;;15.70;99.90;;;;;;5053878;28;20021;-74
2023/10/05 00:48:48;;;;;;;11.45;3.20;;;15.70;99.90;;;;;;5054756;28;20025;-74
2023/10/05 00:51:23;;;;;;;10.18;2.92;;;15.70;99.90;;;;;;5054633;28;20028;-74
2023/10/05 00:53:50;;;;;;;10.10;3.05;;;15.70;99.90;;;;;;5054246;28;20025;-74
2023/10/05 00:56:16;;;;;;;13.00;3.70;;;15.70;99.90;;;;;;5054314;28;20159;-74
2023/10/05 00:58:48;;;;;;;9.30;3.05;;;15.70;99.90;;;;;;5054502;28;20029;-74
2023/10/05 01:01:15;;;;;;;13.02;3.45;;;15.70;99.90;;;;;;5036450;28;20025;-74
2023/10/05 01:06:41;;;;;;;16.15;3.47;;;15.70;99.90;;;;;;5054792;28;20170;-74
2023/10/05 01:09:32;;;;;;;11.45;3.22;;;15.70;99.90;;;;;;5053529;28;20013;-74
2023/10/05 01:14:46;;;;;;;9.73;3.72;;;15.70;99.90;;;;;;5053540;28;20025;-74
2023/10/05 01:17:11;;;;;;;11.32;3.47;;;15.70;99.90;;;;;;5053536;28;20033;-74
2023/10/05 01:19:39;;;;;;;11.98;3.50;;;15.60;99.90;;;;;;5053481;28;20020;-74
2023/10/05 01:22:13;;;;;;;8.45;3.13;;;15.60;99.90;;;;;;5054326;28;20389;-73
2023/10/05 01:24:38;;;;;;;11.32;3.65;;;15.60;99.90;;;;;;5053794;28;20058;-74
2023/10/05 01:27:04;;;;;;;12.25;3.90;;;15.60;99.90;;;;;;5053834;28;20478;-74
2023/10/05 01:29:30;;;;;;;9.48;3.30;;;15.60;99.90;;;;;;5054067;28;20174;-74
2023/10/05 01:31:56;;;;;;;10.77;3.67;;;15.60;99.90;;;;;;5037471;28;20022;-74
2023/10/05 01:34:22;;;;;;;12.55;3.13;;;15.60;99.90;;;;;;5051033;28;20108;-74
2023/10/05 01:36:48;;;;;;;11.85;3.67;;;15.60;99.90;;;;;;5053142;28;20355;-74
2023/10/05 01:39:19;;;;;;;12.40;3.30;;;15.60;99.90;;;;;;5053621;28;20108;-74
2023/10/05 01:41:47;;;;;;;14.85;3.38;;;15.50;99.90;;;;;;5035336;28;20469;-75
2023/10/05 01:44:14;;;;;;;9.38;3.40;;;15.50;99.90;;;;;;5053139;28;20067;-74
2023/10/05 01:46:40;;;;;;;10.75;3.42;;;15.50;99.90;;;;;;5036058;28;20032;-73
2023/10/05 01:49:06;;;;;;;11.70;3.53;;;15.50;99.90;;;;;;5053794;28;20068;-74
2023/10/05 01:51:32;;;;;;;8.95;3.58;;;15.50;99.90;;;;;;5053626;28;20021;-74
2023/10/05 01:54:06;;;;;;;10.85;3.05;;;15.40;99.90;;;;;;5053476;28;20028;-73
2023/10/05 01:56:32;;;;;;;13.57;3.42;;;15.40;99.90;;;;;;5053392;28;20617;-74
2023/10/05 01:59:00;;;;;;;9.50;2.88;;;15.40;99.90;;;;;;5053157;28;20478;-74
2023/10/05 02:01:28;;;;;;;8.73;3.10;;;15.40;99.90;;;;;;5053895;28;20083;-74
2023/10/05 02:03:57;;;;;;;7.50;3.42;;;15.40;99.90;;;;;;5053215;28;20040;-74
2023/10/05 02:06:22;;;;;;;10.57;3.58;;;15.30;99.90;;;;;;5053388;28;20025;-74
2023/10/05 02:08:48;;;;;;;7.03;3.15;;;15.30;99.90;;;;;;5053254;28;20067;-74
2023/10/05 02:11:19;;;;;;;12.88;3.22;;;15.30;99.90;;;;;;5053003;28;20025;-74
2023/10/05 02:13:45;;;;;;;11.60;3.30;;;15.40;99.90;;;;;;5052069;28;20025;-74
2023/10/05 02:16:18;;;;;;;8.98;2.85;;;15.30;99.90;;;;;;5034287;28;20500;-74
2023/10/05 02:18:45;;;;;;;11.40;3.00;;;15.30;99.90;;;;;;5053177;28;20021;-73
2023/10/05 02:21:19;;;;;;;12.25;2.90;;;15.30;99.90;;;;;;5035360;28;20013;-73
2023/10/05 02:23:47;;;;;;;12.75;3.47;;;15.30;99.90;;;;;;5053027;28;20036;-73
2023/10/05 02:29:14;;;;;;;8.85;2.80;;;15.20;99.90;;;;;;5019200;28;20065;-74
2023/10/05 02:32:05;;;;;;;11.50;2.92;;;15.30;99.90;;;;;;5052344;28;20033;-73
2023/10/05 02:34:41;;;;;;;9.68;2.70;;;15.30;99.90;;;;;;5052827;28;20021;-74
2023/10/05 02:37:07;;;;;;;9.90;2.85;;;15.30;99.90;;;;;;5052557;28;20013;-74
2023/10/05 02:39:37;;;;;;;7.80;2.78;;;15.20;99.90;;;;;;5034583;28;20028;-74
2023/10/05 02:42:06;;;;;;;11.15;3.65;;;15.20;99.90;;;;;;5052459;28;20017;-74
2023/10/05 02:44:35;;;;;;;9.48;3.30;;;15.30;99.90;;;;;;5052730;28;20082;-73
2023/10/05 02:47:02;;;;;;;9.32;2.97;;;15.20;99.90;;;;;;5052075;28;20108;-73
2023/10/05 02:49:28;;;;;;;13.38;3.30;;;15.10;99.90;;;;;;5051897;28;20056;-74
2023/10/05 02:51:54;;;;;;;10.65;4.10;;;15.10;99.90;;;;;;5052127;28;20053;-73
2023/10/05 02:54:22;;;;;;;10.40;3.15;;;15.10;99.90;;;;;;5052553;28;20099;-74
2023/10/05 02:56:48;;;;;;;7.78;3.15;;;15.10;99.90;;;;;;5052569;28;20025;-73
2023/10/05 02:59:15;;;;;;;10.82;3.97;;;15.10;99.90;;;;;;5052507;28;20040;-73
2023/10/05 03:01:43;;;;;;;9.68;3.45;;;15.10;99.90;;;;;;5052417;28;20055;-74
2023/10/05 03:06:40;;;;;;;9.88;3.60;;;15.10;99.90;;;;;;5032549;28;20091;-74
2023/10/05 03:09:07;;;;;;;9.57;2.95;;;15.10;99.90;;;;;;5032387;28;20489;-73
2023/10/05 03:11:40;;;;;;;11.48;4.25;;;15.10;99.90;;;;;;5031916;28;20025;-73
2023/10/05 03:14:10;;;;;;;10.45;3.60;;;15.20;99.90;;;;;;5032455;28;20106;-73
2023/10/05 03:16:43;;;;;;;8.70;3.50;;;15.20;99.90;;;;;;5039304;28;20095;-74
2023/10/05 03:19:20;;;;;;;11.75;3.78;;;15.10;99.90;;;;;;5051562;28;20021;-74
2023/10/05 03:21:51;;;;;;;13.30;3.80;;;15.20;99.90;;;;;;5051529;28;20032;-74
2023/10/05 03:24:19;;;;;;;9.48;3.28;;;15.30;99.90;;;;;;5052113;28;20040;-73
2023/10/05 03:26:45;;;;;;;11.45;3.42;;;15.20;99.90;;;;;;5046530;28;20110;-75
2023/10/05 03:29:14;;;;;;;12.02;3.50;;;15.20;99.90;;;;;;5011034;28;20647;-75
2023/10/05 03:34:27;;;;;;;12.43;4.13;;;15.20;99.90;;;;;;5051330;28;20133;-73
2023/10/05 03:36:54;;;;;;;14.00;3.55;;;15.20;99.90;;;;;;5052032;28;20437;-74
2023/10/05 03:39:22;;;;;;;11.10;3.60;;;15.20;99.90;;;;;;5051192;28;20478;-74
2023/10/05 03:41:48;;;;;;;10.68;4.20;;;15.20;99.90;;;;;;5051715;28;20025;-74
2023/10/05 03:44:16;;;;;;;8.23;3.17;;;15.20;99.90;;;;;;5051376;28;20071;-74
2023/10/05 03:46:47;;;;;;;11.00;3.60;;;15.20;99.90;;;;;;5051940;28;20062;-74
2023/10/05 03:49:21;;;;;;;11.80;3.90;;;15.20;99.90;;;;;;5052007;28;20100;-74
2023/10/05 03:51:51;;;;;;;8.88;3.42;;;15.10;99.90;;;;;;5051824;28;20024;-74
2023/10/05 03:54:25;;;;;;;15.57;4.25;;;15.10;99.90;;;;;;5051266;28;20454;-74
2023/10/05 03:57:13;;;;;;;13.25;3.92;;;15.10;99.90;;;;;;5033424;28;20544;-74
2023/10/05 03:59:39;;;;;;;14.88;3.83;;;15.10;99.90;;;;;;5051236;28;20390;-73
2023/10/05 04:02:05;;;;;;;11.45;3.53;;;15.10;99.90;;;;;;5054488;28;20071;-74
2023/10/05 04:04:34;;;;;;;8.85;3.17;;;15.10;99.90;;;;;;5037241;28;20500;-74
2023/10/05 04:07:01;;;;;;;12.68;3.90;;;15.10;99.90;;;;;;5055512;28;20032;-73
2023/10/05 04:09:28;;;;;;;8.88;3.20;;;15.10;99.90;;;;;;5054460;28;20029;-74
2023/10/05 04:11:57;;;;;;;11.13;3.33;;;15.10;99.90;;;;;;5055603;28;20088;-74
2023/10/05 04:14:26;;;;;;;12.45;3.53;;;15.00;99.90;;;;;;5055631;28;20032;-74
2023/10/05 04:16:53;;;;;;;8.55;3.90;;;15.00;99.90;;;;;;5054849;28;20021;-74
2023/10/05 04:19:19;;;;;;;13.63;3.97;;;15.00;99.90;;;;;;5055248;28;20052;-74
2023/10/05 04:21:46;;;;;;;17.27;3.75;;;15.00;99.90;;;;;;5055389;28;20060;-74
2023/10/05 04:24:15;;;;;;;7.35;3.20;;;15.00;99.90;;;;;;5055285;28;20381;-74
2023/10/05 04:26:45;;;;;;;9.68;3.60;;;15.00;99.90;;;;;;5054479;28;20029;-73
2023/10/05 04:29:12;;;;;;;8.43;3.67;;;15.00;99.90;;;;;;5054932;28;20385;-74
2023/10/05 04:31:40;;;;;;;12.57;3.40;;;14.90;99.90;;;;;;5055148;28;20033;-74
2023/10/05 04:34:12;;;;;;;12.05;3.92;;;14.90;99.90;;;;;;5055393;28;20021;-73
2023/10/05 04:36:39;;;;;;;14.60;3.80;;;14.90;99.90;;;;;;5054961;28;20052;-74
2023/10/05 04:39:06;;;;;;;8.85;3.47;;;14.90;99.90;;;;;;5054612;28;20374;-73
2023/10/05 04:41:39;;;;;;;9.75;4.20;;;14.90;99.90;;;;;;5055004;28;20017;-74
2023/10/05 04:44:12;;;;;;;14.65;3.40;;;14.80;99.90;;;;;;5033489;28;20030;-74
2023/10/05 04:46:47;;;;;;;13.23;4.45;;;14.80;99.90;;;;;;5034508;28;20030;-73
2023/10/05 04:49:17;;;;;;;11.05;3.53;;;14.80;99.90;;;;;;5034113;28;20018;-73
2023/10/05 04:51:44;;;;;;;15.15;3.97;;;14.70;99.90;;;;;;5034803;28;20445;-73
2023/10/05 04:54:18;;;;;;;12.45;3.88;;;14.70;99.90;;;;;;5034709;28;20030;-73
2023/10/05 04:56:54;;;;;;;15.13;3.72;;;14.70;99.90;;;;;;5034988;28;20032;-73
2023/10/05 04:59:37;;;;;;;10.88;3.95;;;14.80;99.90;;;;;;5034887;28;20068;-73
2023/10/05 05:02:21;;;;;;;15.38;4.05;;;14.80;99.90;;;;;;5050530;28;20105;-73
2023/10/05 05:07:19;;;;;;;11.88;3.50;;;14.80;99.90;;;;;;5053330;28;20116;-73
2023/10/05 05:09:45;;;;;;;8.15;3.33;;;14.80;99.90;;;;;;5054248;28;20029;-73
2023/10/05 05:12:17;;;;;;;12.48;4.18;;;14.80;99.90;;;;;;5052730;28;20083;-73
2023/10/05 05:14:45;;;;;;;18.33;4.00;;;14.80;99.90;;;;;;5054500;28;20099;-73
2023/10/05 05:17:18;;;;;;;8.35;3.63;;;14.80;99.90;;;;;;5053608;28;20021;-73
2023/10/05 05:19:46;;;;;;;10.23;3.97;;;14.70;99.90;;;;;;5054542;28;20025;-73
2023/10/05 05:22:12;;;;;;;14.48;4.20;;;14.70;99.90;;;;;;5053295;28;20021;-73
2023/10/05 05:24:38;;;;;;;11.02;3.75;;;14.70;99.90;;;;;;5053636;28;20131;-73
2023/10/05 05:27:19;;;;;;;14.10;3.90;;;14.80;99.90;;;;;;5054259;28;20517;-75
2023/10/05 05:29:46;;;;;;;12.30;4.00;;;14.80;99.90;;;;;;5053485;28;20543;-73
2023/10/05 05:32:15;;;;;;;11.57;4.38;;;14.80;99.90;;;;;;5054194;28;20024;-73
2023/10/05 05:34:42;;;;;;;9.57;3.70;;;14.80;99.90;;;;;;5054153;28;20032;-73
2023/10/05 05:37:25;;;;;;;9.43;4.03;;;14.80;99.90;;;;;;5053736;28;20025;-74
2023/10/05 05:39:55;;;;;;;17.55;4.30;;;14.80;99.90;;;;;;5053875;28;20028;-73
2023/10/05 05:42:22;;;;;;;16.92;4.20;;;14.80;99.90;;;;;;5053700;28;20493;-73
2023/10/05 05:44:48;;;;;;;13.20;4.15;;;14.70;99.90;;;;;;5035911;28;20033;-73
2023/10/05 05:47:14;;;;;;;10.23;4.45;;;14.70;99.90;;;;;;5053932;28;20028;-73
2023/10/05 05:49:46;;;;;;;9.10;4.28;;;14.80;99.90;;;;;;5053736;28;20029;-73
2023/10/05 05:52:15;;;;;;;11.10;3.47;;;14.70;99.90;;;;;;5052587;28;20393;-76
2023/10/05 05:54:42;;;;;;;14.35;4.07;;;14.70;99.90;;;;;;5033680;28;21387;-73
2023/10/05 05:57:11;;;;;;;15.25;4.60;;;14.70;99.90;;;;;;5035390;28;20489;-73
2023/10/05 05:59:39;;;;;;;12.23;4.32;;;14.70;99.90;;;;;;5053370;28;20033;-73
2023/10/05 06:02:07;;;;;;;11.95;4.03;;;14.80;99.90;;;;;;5050618;28;20289;-73
2023/10/05 06:04:33;;;;;;;15.13;4.43;;;14.80;99.90;;;;;;5052277;28;20037;-73
2023/10/05 06:07:11;;;;;;;11.40;3.78;;;14.90;99.90;;;;;;5052753;28;20469;-73
2023/10/05 06:09:45;;;;;;;13.52;3.95;;;14.90;99.90;;;;;;5035603;28;20021;-73
2023/10/05 06:12:12;;;;;;;16.83;4.35;;;14.80;99.90;;;;;;5052422;28;20025;-72
2023/10/05 06:14:40;;;;;;;19.50;4.38;;;14.80;99.90;;;;;;5052240;28;20478;-73
2023/10/05 06:17:09;;;;;;;13.65;4.47;;;14.90;99.90;;;;;;5052813;28;20032;-73
2023/10/05 06:19:36;;;;;;;11.65;4.25;;;14.90;99.90;;;;;;5053030;28;20083;-73
2023/10/05 06:22:06;;;;;;;15.43;4.40;;;15.00;99.90;;;;;;5053093;28;20029;-73
2023/10/05 06:24:35;;;;;;;13.88;4.22;;;14.90;99.90;;;;;;5051590;28;20033;-74
2023/10/05 06:27:00;;;;;;;16.65;5.10;;;15.00;99.90;;;;;;5053225;28;20467;-73
2023/10/05 06:29:27;;;;;;;10.93;4.80;;;15.00;99.90;;;;;;5052313;28;20078;-73
2023/10/05 06:31:53;;;;;;;16.35;4.82;;;14.90;99.90;;;;;;5051421;28;20028;-73
2023/10/05 06:34:18;;;;;;;11.82;4.65;;;15.00;99.90;;;;;;5052324;28;20386;-72
2023/10/05 06:36:44;;;;;;;13.02;4.50;;;15.00;99.90;;;;;;5052819;28;20021;-73
2023/10/05 06:39:12;;;;;;;19.20;4.72;;;15.00;99.90;;;;;;5051978;28;20056;-73
2023/10/05 06:41:38;;;;;;;10.55;3.47;;;15.10;99.90;;;;;;5051870;28;20021;-73
2023/10/05 06:44:07;;;;;;;15.38;4.55;;;15.10;99.90;;;;;;5050715;28;20047;-73
2023/10/05 06:46:34;;;;;;;15.50;4.10;;;15.10;99.90;;;;;;5034271;28;20458;-73
2023/10/05 06:49:01;;;;;;;17.35;4.35;;;15.10;99.90;;;;;;5050855;28;20017;-73
2023/10/05 06:51:28;;;;;;;17.83;4.43;;;15.00;99.90;;;;;;5052293;28;20116;-73
2023/10/05 06:53:57;;;;;;;18.00;5.90;;;15.10;99.90;;;;;;5051139;28;20017;-73
2023/10/05 06:56:24;;;;;;;14.68;4.90;;;15.10;99.90;;;;;;5052435;28;20040;-73
2023/10/05 06:58:49;;;;;;;12.48;4.30;;;15.20;99.90;;;;;;5051752;28;20056;-73
2023/10/05 07:01:20;;;;;;;17.13;4.38;;;15.20;99.90;;;;;;5052267;28;20021;-73
2023/10/05 07:03:52;;;;;;;15.95;4.95;;;15.20;99.90;;;;;;5052115;28;20541;-73
2023/10/05 07:06:25;;;;;;;10.38;4.20;;;15.20;99.90;;;;;;5052478;28;20033;-73
2023/10/05 07:08:54;;;;;;;15.32;4.93;;;15.20;99.90;;;;;;5052176;28;20477;-73
2023/10/05 07:11:20;;;;;;;22.23;5.15;;;15.30;99.90;;;;;;5052552;28;20115;-73
2023/10/05 07:13:49;;;;;;;16.00;5.10;;;15.30;99.90;;;;;;5052373;28;20025;-73
2023/10/05 07:16:17;;;;;;;15.27;4.72;;;15.30;99.90;;;;;;5050985;28;20390;-73
2023/10/05 07:18:43;;;;;;;15.88;4.63;;;15.40;99.90;;;;;;5051497;28;20021;-73
2023/10/05 07:21:09;;;;;;;14.00;4.40;;;15.40;99.90;;;;;;5051833;28;20502;-73
2023/10/05 07:23:36;;;;;;;13.23;4.25;;;15.30;99.90;;;;;;5051347;28;20029;-73
2023/10/05 07:26:03;;;;;;;9.10;3.65;;;15.40;99.90;;;;;;5051868;28;20032;-73
2023/10/05 07:28:29;;;;;;;13.00;4.72;;;15.40;99.90;;;;;;5051029;28;20497;-73
2023/10/05 07:30:59;;;;;;;14.15;4.35;;;15.50;99.90;;;;;;5051237;28;20032;-73
2023/10/05 07:33:25;;;;;;;16.20;4.25;;;15.50;99.90;;;;;;5051840;28;20071;-73
2023/10/05 07:35:53;;;;;;;15.85;4.32;;;15.60;99.90;;;;;;5053467;28;20036;-73
2023/10/05 07:38:20;;;;;;;14.30;4.95;;;15.50;99.90;;;;;;5037426;28;20470;-73
2023/10/05 07:40:47;;;;;;;12.32;4.50;;;15.60;99.90;;;;;;5053407;28;20529;-73
2023/10/05 07:43:13;;;;;;;14.45;5.03;;;15.60;99.90;;;;;;5055897;28;20021;-73
2023/10/05 07:45:39;;;;;;;19.35;5.00;;;15.70;99.90;;;;;;5054956;28;20033;-73
2023/10/05 07:48:06;;;;;;;17.67;4.57;;;15.80;99.90;;;;;;5038086;28;20182;-73
2023/10/05 07:50:32;;;;;;;11.90;4.45;;;15.80;99.90;;;;;;5054905;28;20029;-73
2023/10/05 07:52:58;;;;;;;14.25;4.30;;;15.80;99.90;;;;;;5055187;28;20025;-73
2023/10/05 07:55:24;;;;;;;13.88;4.50;;;15.80;99.90;;;;;;5036902;28;20547;-73
2023/10/05 07:57:53;;;;;;;10.15;4.50;;;15.80;99.90;;;;;;5055264;28;20102;-73
2023/10/05 08:00:20;;;;;;;13.23;4.00;;;15.90;99.90;;;;;;5055641;28;20025;-73
2023/10/05 08:02:46;;;;;;;20.83;5.38;;;16.00;99.90;;;;;;5051659;28;20017;-73
2023/10/05 08:05:12;;;;;;;20.10;5.45;;;15.90;99.90;;;;;;5049393;28;20033;-74
2023/10/05 08:07:39;;;;;;;15.27;4.45;;;16.00;99.90;;;;;;5054691;28;20029;-74
2023/10/05 08:10:06;;;;;;;15.43;4.70;;;16.10;99.90;;;;;;5054624;28;20028;-73
2023/10/05 08:12:32;;;;;;;16.02;4.53;;;16.10;99.90;;;;;;5053498;28;20389;-74
2023/10/05 08:14:58;;;;;;;18.23;5.00;;;16.20;99.90;;;;;;5037686;28;20100;-74
2023/10/05 08:17:24;;;;;;;10.77;3.78;;;16.20;99.90;;;;;;5053203;28;20037;-73
2023/10/05 08:19:49;;;;;;;9.75;4.25;;;16.20;99.90;;;;;;5035519;28;20025;-73
2023/10/05 08:22:20;;;;;;;9.90;3.65;;;16.20;99.90;;;;;;5055058;28;20032;-73
2023/10/05 08:24:46;;;;;;;13.55;4.00;;;16.20;99.90;;;;;;5055445;28;20079;-74
2023/10/05 08:27:14;;;;;;;21.33;3.90;;;16.30;99.90;;;;;;5055365;28;20033;-73
2023/10/05 08:29:42;;;;;;;16.40;4.13;;;16.40;99.90;;;;;;5055543;28;20033;-73
2023/10/05 08:32:07;;;;;;;10.60;3.80;;;16.40;99.90;;;;;;5047709;28;20017;-73
2023/10/05 08:34:33;;;;;;;10.35;3.90;;;16.50;99.90;;;;;;5042057;28;20022;-74
2023/10/05 08:37:01;;;;;;;13.93;3.70;;;16.50;99.90;;;;;;5034531;28;20445;-74
2023/10/05 08:39:30;;;;;;;16.58;4.18;;;16.50;99.90;;;;;;5043623;28;20072;-74
2023/10/05 08:42:02;;;;;;;12.85;3.95;;;16.60;99.90;;;;;;5054995;28;20109;-73
2023/10/05 08:44:28;;;;;;;7.15;3.15;;;16.70;99.90;;;;;;5055364;28;20051;-73
2023/10/05 08:46:58;;;;;;;9.93;3.80;;;16.70;99.90;;;;;;5054353;28;20112;-74
2023/10/05 08:49:24;;;;;;;9.18;3.72;;;16.70;99.90;;;;;;5054035;28;20033;-74
2023/10/05 08:51:51;;;;;;;9.68;3.67;;;16.80;99.90;;;;;;5054443;28;20124;-74
2023/10/05 08:54:21;;;;;;;11.40;3.38;;;16.90;99.90;;;;;;5054756;28;20017;-73
2023/10/05 08:56:48;;;;;;;14.30;4.28;;;16.80;99.90;;;;;;5054932;28;20032;-73
2023/10/05 08:59:15;;;;;;;14.70;3.70;;;16.90;99.90;;;;;;5054673;28;20541;-73
2023/10/05 09:01:46;;;;;;;16.10;3.55;;;17.00;99.90;;;;;;5054718;28;20021;-73
2023/10/05 09:06:56;;;;;;;11.85;3.53;;;17.10;99.90;;;;;;5054774;28;20159;-73
2023/10/05 09:09:36;;;;;;;14.63;3.70;;;17.10;99.90;;;;;;5054014;28;20033;-73
2023/10/05 09:12:16;;;;;;;9.25;3.63;;;17.10;99.90;;;;;;5053864;28;20021;-73
2023/10/05 09:14:43;;;;;;;10.70;3.42;;;17.10;99.90;;;;;;5054388;28;20108;-74
2023/10/05 09:17:09;;;;;;;9.65;4.03;;;17.20;99.90;;;;;;5053485;28;20043;-74
2023/10/05 09:19:37;;;;;;;15.60;4.10;;;17.20;99.90;;;;;;5053535;28;20025;-74
2023/10/05 09:22:14;;;;;;;13.63;4.00;;;17.20;99.90;;;;;;5053894;28;20103;-74
2023/10/05 09:24:52;;;;;;;14.63;3.33;;;17.30;99.90;;;;;;5036194;28;20041;-74
2023/10/05 09:27:19;;;;;;;11.90;3.45;;;17.30;99.90;;;;;;5054225;28;20394;-74
2023/10/05 09:29:45;;;;;;;8.70;3.63;;;17.40;99.90;;;;;;5054132;28;20029;-74
2023/10/05 09:32:25;;;;;;;13.35;3.35;;;17.40;99.90;;;;;;5053717;28;20025;-74
2023/10/05 09:34:55;;;;;;;10.77;3.70;;;17.40;99.90;;;;;;5053974;28;20044;-74
2023/10/05 09:37:24;;;;;;;11.05;3.58;;;17.40;99.90;;;;;;5053081;28;20028;-74
2023/10/05 09:39:53;;;;;;;12.95;2.92;;;17.40;99.90;;;;;;5053214;28;20035;-74
2023/10/05 09:42:26;;;;;;;15.85;3.95;;;17.50;99.90;;;;;;5051939;28;20024;-74
2023/10/05 09:44:59;;;;;;;;;;;17.50;99.90;;;;;;5036504;28;20060;-73
2023/10/05 09:47:32;;;;;;;12.20;3.78;;;17.50;99.90;;;;;;5035596;28;19908;-74
2023/10/05 09:50:09;;;;;;;14.27;3.22;;;17.60;99.90;;;;;;5053899;28;20124;-74
2023/10/05 09:52:37;;;;;;;8.82;3.53;;;17.60;99.90;;;;;;5053319;28;20470;-73
2023/10/05 09:55:05;;;;;;;14.13;3.33;;;17.60;99.90;;;;;;5053692;28;20032;-74
2023/10/05 09:57:40;;;;;;;10.90;3.28;;;17.60;99.90;;;;;;5052545;28;20078;-75
2023/10/05 10:00:27;;;;;;;12.40;3.75;;;17.60;99.90;;;;;;5053365;28;20098;-75
2023/10/05 10:02:58;;;;;;;16.75;4.25;;;17.60;99.90;;;;;;5053129;28;20036;-74
2023/10/05 10:05:33;;;;;;;17.55;4.18;;;17.50;99.90;;;;;;5052990;28;20055;-75
2023/10/05 10:08:21;;;;;;;14.73;3.65;;;17.60;99.90;;;;;;5032054;28;20040;-74
2023/10/05 10:11:08;;;;;;;11.27;3.20;;;17.50;99.90;;;;;;5014800;28;20514;-74
2023/10/05 10:13:38;;;;;;;11.70;3.80;;;17.50;99.90;;;;;;5032938;28;20029;-74
2023/10/05 10:16:26;;;;;;;16.60;4.05;;;17.50;99.90;;;;;;5018131;28;20021;-74
2023/10/05 10:19:18;;;;;;;8.52;3.08;;;17.60;99.90;;;;;;5034581;28;20036;-73
2023/10/05 10:21:46;;;;;;;9.30;3.23;;;17.60;99.90;;;;;;5053304;28;20033;-74
2023/10/05 10:24:17;;;;;;;18.40;4.57;;;17.60;99.90;;;;;;5034386;28;20374;-73
2023/10/05 10:26:44;;;;;;;12.25;3.50;;;17.60;99.90;;;;;;5052553;28;20036;-74
2023/10/05 10:29:14;;;;;;;9.80;3.47;;;17.60;99.90;;;;;;5053044;28;20029;-73
2023/10/05 10:31:42;;;;;;;13.20;3.90;;;17.60;99.90;;;;;;5053162;28;20013;-74
2023/10/05 10:34:42;;;;;;;15.98;3.80;;;17.70;99.90;;;;;;5052519;28;20104;-74
2023/10/05 10:37:10;;;;;;;11.70;3.10;;;17.70;99.90;;;;;;5052525;28;20044;-73
2023/10/05 10:39:37;;;;;;;11.40;3.88;;;17.80;99.90;;;;;;5052576;28;20044;-72
2023/10/05 10:42:18;;;;;;;17.17;4.20;;;17.90;99.90;;;;;;5052394;28;20064;-72
2023/10/05 10:47:17;;;;;;;12.52;3.72;;;17.90;99.90;;;;;;5052208;28;20044;-73
2023/10/05 10:50:47;;;;;;;10.55;3.63;;;17.90;99.90;;;;;;5052296;28;20027;-73
2023/10/05 10:52:52;;;;;;;9.82;3.38;;;17.90;99.90;;;;;;5044224;28;20040;-72
2023/10/05 10:55:21;;;;;;;12.32;3.20;;;18.10;99.90;;;;;;5052158;28;20458;-73
2023/10/05 10:57:53;;;;;;;9.32;3.50;;;18.20;99.90;;;;;;5052758;28;20122;-72
2023/10/05 11:03:15;;;;;;;12.15;3.33;;;18.20;99.90;;;;;;5051923;28;20048;-72
2023/10/05 11:05:44;;;;;;;10.88;3.17;;;18.30;99.90;;;;;;5052485;28;20111;-72
2023/10/05 11:08:20;;;;;;;10.38;3.13;;;18.30;99.90;;;;;;5052834;28;20025;-72
2023/10/05 11:11:09;;;;;;;11.40;3.13;;;18.40;99.90;;;;;;5052137;28;20108;-72
2023/10/05 11:13:49;;;;;;;8.63;3.20;;;18.50;99.90;;;;;;5052538;28;20091;-72
2023/10/05 11:16:15;;;;;;;12.25;3.40;;;18.70;99.90;;;;;;5052244;28;20078;-73
2023/10/05 11:18:57;;;;;;;10.73;3.08;;;18.90;99.90;;;;;;5051939;28;20028;-72
2023/10/05 11:21:26;;;;;;;9.95;2.90;;;19.10;99.90;;;;;;5010304;28;20025;-72
2023/10/05 11:24:00;;;;;;;12.60;3.13;;;19.10;99.90;;;;;;5018731;28;20060;-72
2023/10/05 11:28:56;;;;;;;11.73;3.38;;;19.30;99.90;;;;;;5039238;28;20034;-72
2023/10/05 11:31:24;;;;;;;9.82;3.45;;;19.50;99.90;;;;;;5037090;28;20068;-73
2023/10/05 11:33:53;;;;;;;10.20;2.65;;;19.50;99.90;;;;;;5037167;28;20025;-73
2023/10/05 11:36:27;;;;;;;10.90;3.25;;;19.60;99.90;;;;;;5039372;28;20033;-73
2023/10/05 11:38:57;;;;;;;11.05;2.80;;;19.60;99.90;;;;;;5035091;28;20025;-72
2023/10/05 11:41:28;;;;;;;12.45;3.38;;;19.70;99.90;;;;;;5041744;28;20159;-73
2023/10/05 11:43:58;;;;;;;8.38;2.83;;;19.80;99.90;;;;;;5023048;28;20466;-72
2023/10/05 11:46:42;;;;;;;9.85;2.47;;;19.80;99.90;;;;;;5037016;28;20096;-73
2023/10/05 11:49:10;;;;;;;7.40;2.50;;;19.80;99.90;;;;;;5041572;28;20013;-73
2023/10/05 11:51:42;;;;;;;6.60;2.88;;;19.80;99.90;;;;;;5043070;28;20100;-73
2023/10/05 11:54:08;;;;;;;6.97;2.38;;;19.90;99.90;;;;;;5040503;28;20025;-73
2023/10/05 11:56:34;;;;;;;8.57;2.45;;;19.90;99.90;;;;;;5036677;28;20083;-73
2023/10/05 11:59:00;;;;;;;6.32;2.60;;;20.00;99.90;;;;;;5044033;28;20025;-73
2023/10/05 12:01:29;;;;;;;6.03;2.35;;;20.10;99.90;;;;;;5039030;28;20048;-73
2023/10/05 12:03:55;;;;;;;15.15;2.75;;;20.30;99.90;;;;;;5038651;28;20028;-73
2023/10/05 12:06:25;;;;;;;6.53;2.28;;;20.30;99.90;;;;;;5040980;28;20159;-73
2023/10/05 12:09:00;;;;;;;5.40;2.22;;;20.20;99.90;;;;;;5042183;28;20116;-73
2023/10/05 12:11:29;;;;;;;6.50;2.20;;;20.20;99.90;;;;;;5039775;28;20025;-73
2023/10/05 12:13:58;;;;;;;6.13;2.38;;;20.20;99.90;;;;;;5031180;28;20494;-73
2023/10/05 12:16:32;;;;;;;10.70;2.45;;;20.40;99.90;;;;;;5016556;28;20057;-74
2023/10/05 12:19:13;;;;;;;5.05;2.17;;;20.30;99.90;;;;;;5020867;28;20474;-73
2023/10/05 12:21:41;;;;;;;12.18;3.08;;;20.30;99.90;;;;;;5038242;28;20024;-74
2023/10/05 12:24:08;;;;;;;4.20;2.50;;;20.20;99.90;;;;;;5042147;28;20041;-74
2023/10/05 12:26:34;;;;;;;7.35;2.40;;;20.10;99.90;;;;;;5036238;28;20022;-74
2023/10/05 12:28:59;;;;;;;6.43;2.28;;;20.10;99.90;;;;;;5020551;28;20562;-74
2023/10/05 12:31:26;;;;;;;8.95;2.80;;;20.10;99.90;;;;;;5039481;28;21334;-74
2023/10/05 12:33:51;;;;;;;8.60;2.95;;;20.10;99.90;;;;;;5043415;28;20021;-74
2023/10/05 12:36:17;;;;;;;9.15;2.92;;;20.20;99.90;;;;;;5042805;28;20029;-74
2023/10/05 12:38:43;;;;;;;10.32;2.33;;;20.20;99.90;;;;;;5039050;28;20087;-72
2023/10/05 12:41:15;;;;;;;8.18;2.35;;;20.10;99.90;;;;;;5041963;28;20025;-73
2023/10/05 12:43:42;;;;;;;10.93;3.40;;;20.00;99.90;;;;;;5042105;28;20039;-73
2023/10/05 12:46:12;;;;;;;9.98;2.70;;;20.00;99.90;;;;;;5045333;28;20040;-72
2023/10/05 12:48:39;;;;;;;8.90;2.80;;;20.00;99.90;;;;;;5040113;28;20111;-71
2023/10/05 12:51:08;;;;;;;7.95;2.75;;;20.10;99.90;;;;;;5039949;28;20388;-72
2023/10/05 12:53:37;;;;;;;11.00;3.10;;;20.10;99.90;;;;;;5039293;28;20028;-70
2023/10/05 12:56:04;;;;;;;7.68;2.17;;;20.20;99.90;;;;;;5042857;28;20079;-70
2023/10/05 12:58:32;;;;;;;8.75;2.58;;;20.30;99.90;;;;;;5042018;28;20444;-73
2023/10/05 13:01:07;;;;;;;12.30;3.42;;;20.30;99.90;;;;;;5041258;28;20033;-73
2023/10/05 13:03:34;;;;;;;11.05;2.85;;;20.40;99.90;;;;;;5023827;28;20485;-72
2023/10/05 13:06:06;;;;;;;6.45;2.25;;;20.40;99.90;;;;;;5040363;28;20029;-73
2023/10/05 13:08:32;;;;;;;9.20;3.00;;;20.40;99.90;;;;;;5040238;28;22630;-73
2023/10/05 13:10:58;;;;;;;7.75;2.78;;;20.30;99.90;;;;;;5040200;28;20029;-72
2023/10/05 13:13:25;;;;;;;6.95;2.67;;;20.30;99.90;;;;;;5041128;28;20028;-73
2023/10/05 13:15:52;;;;;;;8.32;3.33;;;20.30;99.90;;;;;;5041236;28;20481;-73
2023/10/05 13:18:18;;;;;;;8.80;2.40;;;20.30;99.90;;;;;;5024778;28;20045;-73
2023/10/05 13:20:54;;;;;;;9.05;2.50;;;20.10;99.90;;;;;;5039436;28;20447;-72